Terminal Aerodrome Forecast
Issued by NWS Shreveport, LA

Home | Current Version | Previous Version | Text Only | Print | Product List | Glossary On
Versions: 1 2 3 4 5 6 7 8 9 10 11 12 13 14
326
FTUS44 KSHV 132342
TAFSHV
TAF
KSHV 132342Z 1400/1424 12008KT P6SM FEW045 BKN060
      TEMPO 1402/1406 BKN040
     FM140600 13007KT P6SM BKN035 BKN250
     FM141500 16010KT P6SM OVC025=

USA.gov is the U.S. government's official web portal to all federal, state and local government web resources and services.